Latest Weather Observations for Beerburrum

IDQ60901

Issued at 4:41 pm EST Wednesday 10 February 2016 (issued every 10 minutes, with the page automatically refreshed every 10 minutes)

About weather observations | Map of Brisbane area stations | Latest observations for Brisbane area | Other Formats
Station Details ID: 040284 Name: BEERBURRUM FOREST STATION Lat: -26.96 Lon: 152.96 Height: 48.0 m
Data from the previous 72 hours. | See also: Recent months at Beerburrum
Date/Time
EST
Tmp

°C
App
Tmp
°C
Dew
Point
°C
Rel
Hum
%
Delta-T

°C
Wind Press
QNH
hPa
Press
MSL
hPa
Rain
since
9 am
mm
Dir
 
Spd
km/h
Gust
km/h
Spd
kts
Gust
kts
10/04:30pm 27.0 28.1 18.8 60 5.3 ESE 11 26 6 14 - - 0.2
10/04:00pm 27.4 29.0 19.2 61 5.3 SE 9 20 5 11 - - 0.2
10/03:30pm 27.9 29.0 18.9 58 5.8 SE 11 24 6 13 - - 0.2
10/03:00pm 28.2 29.1 20.0 61 5.4 SSE 15 26 8 14 - - 0.2
10/02:30pm 29.3 30.1 18.1 51 7.2 SE 11 20 6 11 - - 0.2
10/02:00pm 29.2 29.9 18.0 51 7.2 SE 11 20 6 11 - - 0.2
10/01:30pm 28.3 28.4 17.5 52 6.8 SE 13 28 7 15 - - 0.2
10/01:00pm 29.3 29.0 16.5 46 8.0 ESE 13 26 7 14 - - 0.2
10/12:30pm 29.3 29.2 16.1 44 8.2 ESE 11 20 6 11 - - 0.2
10/12:00pm 28.9 29.0 16.5 47 7.7 SE 11 22 6 12 - - 0.2
10/11:30am 29.0 29.1 16.5 46 7.8 SE 11 17 6 9 - - 0.2
10/11:00am 28.0 27.6 16.3 49 7.3 SSE 13 24 7 13 - - 0.2
10/10:30am 27.6 27.5 15.9 49 7.2 SSE 11 24 6 13 - - 0.2
10/10:00am 27.5 27.5 17.1 53 6.5 SSE 13 24 7 13 - - 0.0
10/09:30am 26.9 26.9 16.2 52 6.6 S 11 20 6 11 - - 0.0
10/09:00am 25.8 25.6 16.6 56 5.7 S 13 28 7 15 - - 0.0
10/08:30am 25.1 25.1 16.3 58 5.4 S 11 22 6 12 - - 0.0
10/08:00am 24.5 24.2 16.5 61 4.9 S 13 22 7 12 - - 0.0
10/07:30am 23.7 24.2 16.5 64 4.4 S 9 19 5 10 - - 0.0
10/07:00am 23.6 25.1 18.0 71 3.5 SSW 7 15 4 8 - - 0.0
10/06:30am 22.2 23.8 17.8 76 2.7 SW 6 11 3 6 - - 0.0
10/06:00am 21.3 22.8 17.5 79 2.3 SW 6 9 3 5 - - 0.0
10/05:30am 21.1 22.2 16.5 75 2.8 SSW 6 11 3 6 - - 0.0
10/05:00am 21.0 22.2 16.8 77 2.6 SW 6 11 3 6 - - 0.0
10/04:30am 20.9 22.7 17.5 81 2.1 SW 4 6 2 3 - - 0.0
10/04:00am 20.9 22.2 17.1 79 2.3 SW 6 11 3 6 - - 0.0
10/03:30am 21.1 22.1 16.9 77 2.6 SSW 7 15 4 8 - - 0.0
10/03:00am 20.7 21.9 16.9 79 2.3 SW 6 9 3 5 - - 0.0
10/02:30am 20.8 22.1 17.2 80 2.2 SW 6 9 3 5 - - 0.0
10/02:00am 20.8 21.9 17.2 80 2.2 SSW 7 11 4 6 - - 0.0
10/01:30am 20.2 21.5 17.2 83 1.8 SW 6 15 3 8 - - 0.0
10/01:00am 19.6 20.6 16.8 84 1.7 SW 7 13 4 7 - - 0.0
10/12:30am 19.1 20.3 16.9 87 1.3 SW 6 9 3 5 - - 0.0
10/12:00am 19.3 20.5 16.9 86 1.5 SW 6 7 3 4 - - 0.0
 
Date/Time
EST
Tmp

°C
App
Tmp
°C
Dew
Point
°C
Rel
Hum
%
Delta-T

°C
Wind Press
QNH
hPa
Press
MSL
hPa
Rain
since
9 am
mm
Dir
 
Spd
km/h
Gust
km/h
Spd
kts
Gust
kts
09/11:30pm 19.9 22.0 17.3 85 1.6 WSW 2 7 1 4 - - 0.0
09/11:00pm 20.4 20.5 16.6 79 2.3 S 11 22 6 12 - - 0.0
09/10:30pm 22.8 23.2 15.4 63 4.4 SSE 7 15 4 8 - - 0.0
09/10:00pm 22.7 23.4 15.5 64 4.3 SSW 6 11 3 6 - - 0.0
09/09:30pm 22.7 23.6 16.0 66 4.1 SSW 6 9 3 5 - - 0.0
09/09:00pm 23.3 23.4 15.6 62 4.6 S 9 13 5 7 - - 0.0
09/08:30pm 23.2 23.5 16.0 64 4.4 S 9 17 5 9 - - 0.0
09/08:00pm 23.9 23.7 15.7 60 5.0 S 11 20 6 11 - - 0.0
09/07:30pm 23.9 24.2 15.9 61 4.9 S 9 32 5 17 - - 0.0
09/07:00pm 23.8 24.1 16.1 62 4.7 SSE 9 20 5 11 - - 0.0
09/06:30pm 24.2 24.3 16.5 62 4.7 SSE 11 20 6 11 - - 0.0
09/06:00pm 24.8 24.8 16.2 58 5.3 SE 11 26 6 14 - - 0.0
09/05:30pm 25.6 25.2 16.2 56 5.8 SE 13 28 7 15 - - 0.0
09/05:00pm 26.3 25.5 16.0 53 6.3 SE 15 32 8 17 - - 0.0
09/04:30pm 27.0 26.2 15.1 48 7.2 SSE 13 26 7 14 - - 0.0
09/04:00pm 27.8 26.9 14.8 45 7.9 SE 13 32 7 17 - - 0.0
09/03:30pm 28.0 27.4 15.6 46 7.6 ESE 13 32 7 17 - - 0.0
09/03:00pm 28.4 27.4 16.7 49 7.3 S 17 37 9 20 - - 0.0
09/02:30pm 28.6 27.2 14.4 41 8.6 SE 15 33 8 18 - - 0.0
09/02:00pm 28.1 26.9 15.1 45 7.9 SE 15 30 8 16 - - 0.0
09/01:30pm 28.7 27.4 14.9 43 8.4 SSE 15 35 8 19 - - 0.0
09/01:00pm 28.5 27.3 15.1 44 8.2 SE 15 28 8 15 - - 0.0
09/12:30pm 28.8 28.1 16.4 47 7.7 SE 15 32 8 17 - - 0.0
09/12:00pm 28.5 28.1 16.1 47 7.7 SSE 13 30 7 16 - - 0.0
09/11:30am 28.4 28.3 17.0 50 7.2 SSE 13 26 7 14 - - 0.0
09/11:00am 26.9 25.9 16.5 53 6.4 SSE 17 28 9 15 - - 0.0
09/10:30am 28.2 27.7 15.8 47 7.6 S 13 28 7 15 - - 0.0
09/10:00am 27.1 26.1 15.5 49 7.1 S 15 28 8 15 - - 0.0
09/09:30am 27.2 27.8 17.7 56 6.0 S 11 22 6 12 - - 0.0
09/09:00am 26.4 25.0 16.6 55 6.1 S 19 35 10 19 - - 0.0
09/08:30am 25.6 25.9 17.0 59 5.3 S 11 20 6 11 - - 0.0
09/08:00am 25.1 24.9 16.8 60 5.1 S 13 30 7 16 - - 0.0
09/07:30am 24.0 24.9 17.5 67 4.0 S 9 17 5 9 - - 0.0
09/07:00am 22.7 23.7 16.9 70 3.6 SW 7 13 4 7 - - 0.0
09/06:30am 21.0 22.5 17.6 81 2.1 SW 6 9 3 5 - - 0.0
09/06:00am 19.7 21.1 17.3 86 1.5 SW 6 7 3 4 - - 0.0
09/05:30am 19.4 20.5 16.6 84 1.7 SW 6 7 3 4 - - 0.0
09/05:00am 19.6 22.2 17.6 88 1.2 CALM 0 0 0 0 - - 0.0
09/04:30am 19.0 21.4 17.0 88 1.2 CALM 0 0 0 0 - - 0.0
09/04:00am 18.6 20.8 16.4 87 1.3 CALM 0 0 0 0 - - 0.0
09/03:30am 18.8 21.0 16.4 86 1.4 CALM 0 0 0 0 - - 0.0
09/03:00am 19.1 21.2 16.3 84 1.7 CALM 0 6 0 3 - - 0.0
09/02:30am 19.5 20.4 16.2 81 2.0 SW 6 6 3 3 - - 0.0
09/02:00am 20.1 21.0 16.1 78 2.4 SSW 6 7 3 4 - - 0.0
09/01:30am 20.9 21.9 16.3 75 2.8 SW 6 9 3 5 - - 0.0
09/01:00am 21.5 22.6 16.5 73 3.0 SSW 6 11 3 6 - - 0.0
09/12:30am 21.5 22.4 16.5 73 3.0 SSW 7 15 4 8 - - 0.0
09/12:00am 21.7 22.5 16.4 72 3.2 SSW 7 11 4 6 - - 0.0
 
Date/Time
EST
Tmp

°C
App
Tmp
°C
Dew
Point
°C
Rel
Hum
%
Delta-T

°C
Wind Press
QNH
hPa
Press
MSL
hPa
Rain
since
9 am
mm
Dir
 
Spd
km/h
Gust
km/h
Spd
kts
Gust
kts
08/11:30pm 22.1 22.9 16.4 70 3.5 SSW 7 13 4 7 - - 0.0
08/11:00pm 22.4 23.2 16.4 69 3.6 SSW 7 11 4 6 - - 0.0
08/10:30pm 22.7 23.6 16.5 68 3.8 SSW 7 15 4 8 - - 0.0
08/10:00pm 23.3 24.0 17.1 68 3.8 S 9 19 5 10 - - 0.0
08/09:30pm 23.3 24.5 17.3 69 3.7 S 7 20 4 11 - - 0.0
08/09:00pm 23.5 24.6 17.9 71 3.5 S 9 19 5 10 - - 0.0
08/08:30pm 23.5 25.2 18.6 74 3.1 S 7 19 4 10 - - 0.0
08/08:00pm 23.7 25.1 18.6 73 3.2 S 9 26 5 14 - - 0.0
08/07:30pm 23.7 25.7 18.8 74 3.1 S 6 13 3 7 - - 0.0
08/07:00pm 23.8 25.6 18.2 71 3.5 SSE 6 11 3 6 - - 0.0
08/06:30pm 24.6 26.7 18.1 67 4.1 SSE 4 13 2 7 - - 0.0
08/06:00pm 25.3 26.4 18.0 64 4.6 SSE 9 24 5 13 - - 0.0
08/05:30pm 26.1 27.1 17.7 60 5.3 SSE 9 17 5 9 - - 0.0
08/05:00pm 26.6 27.4 17.4 57 5.8 S 9 22 5 12 - - 0.0
08/04:30pm 27.1 28.0 16.7 53 6.5 SE 7 11 4 6 - - 0.0
08/04:00pm 28.4 29.0 16.7 49 7.3 SE 9 19 5 10 - - 0.0
08/03:30pm 28.4 28.4 16.3 47 7.5 SSE 11 19 6 10 - - 0.0
08/03:00pm 28.4 29.0 17.6 52 6.8 SE 11 20 6 11 - - 0.0
08/02:30pm 27.7 28.0 16.9 51 6.8 ESE 11 24 6 13 - - 0.0
08/02:00pm 27.7 27.7 17.2 52 6.6 SSE 13 28 7 15 - - 0.0
08/01:30pm 27.5 27.8 17.1 53 6.5 SSE 11 19 6 10 - - 0.0
08/01:00pm 27.7 28.1 17.2 52 6.6 SSE 11 20 6 11 - - 0.0
08/12:30pm 28.4 29.0 16.7 49 7.3 SSE 9 20 5 11 - - 0.0
08/12:00pm 28.2 27.3 14.8 44 8.1 SSE 13 24 7 13 - - 0.0
08/11:30am 27.5 27.5 15.2 47 7.5 S 9 20 5 11 - - 0.0
08/11:00am 28.0 28.4 16.3 49 7.3 SE 9 20 5 11 - - 0.0
08/10:30am 26.8 26.5 15.5 50 6.9 S 11 20 6 11 - - 0.0
08/10:00am 27.1 27.5 16.4 52 6.6 S 9 17 5 9 - - 0.0
08/09:30am 25.7 25.4 15.4 53 6.2 SSE 11 24 6 13 - - 0.0
08/09:00am 26.5 27.1 17.6 58 5.6 S 11 19 6 10 - - 0.2
08/08:30am 25.2 25.6 16.3 57 5.5 S 9 19 5 10 - - 0.2
08/08:00am 24.6 25.9 17.6 65 4.4 S 7 15 4 8 - - 0.2
08/07:30am 22.3 23.4 16.6 70 3.5 SSW 6 19 3 10 - - 0.2
08/07:00am 22.1 23.3 16.8 72 3.2 SW 6 11 3 6 - - 0.2
08/06:30am 20.5 22.3 17.5 83 1.8 SW 4 6 2 3 - - 0.2
08/06:00am 19.5 20.7 16.9 85 1.6 SW 6 7 3 4 - - 0.2
08/05:30am 19.3 20.4 16.7 85 1.6 SW 6 7 3 4 - - 0.2
08/05:00am 19.4 20.5 16.6 84 1.7 SW 6 7 3 4 - - 0.2
08/04:30am 19.9 21.9 16.9 83 1.8 SW 2 6 1 3 - - 0.2
08/04:00am 20.1 21.7 16.9 82 1.9 SW 4 7 2 4 - - 0.2
08/03:30am 20.1 21.8 17.1 83 1.8 SW 4 7 2 4 - - 0.2
08/03:00am 20.3 21.9 16.9 81 2.1 SW 4 6 2 3 - - 0.2
08/02:30am 20.3 22.7 17.1 82 2.0 CALM 0 0 0 0 - - 0.2
08/02:00am 20.5 22.3 17.3 82 2.0 SW 4 6 2 3 - - 0.2
08/01:30am 20.5 21.8 17.1 81 2.1 SW 6 7 3 4 - - 0.2
08/01:00am 20.7 23.3 17.5 82 2.0 CALM 0 0 0 0 - - 0.2
08/12:30am 20.9 22.9 16.9 78 2.4 SSW 2 6 1 3 - - 0.2
08/12:00am 21.5 22.9 17.3 77 2.6 SW 6 7 3 4 - - 0.2
 
Date/Time
EST
Tmp

°C
App
Tmp
°C
Dew
Point
°C
Rel
Hum
%
Delta-T

°C
Wind Press
QNH
hPa
Press
MSL
hPa
Rain
since
9 am
mm
Dir
 
Spd
km/h
Gust
km/h
Spd
kts
Gust
kts
07/11:30pm 21.6 23.4 17.4 77 2.6 SW 4 9 2 5 - - 0.2
07/11:00pm 21.7 23.5 17.5 77 2.6 WSW 4 7 2 4 - - 0.2
07/10:30pm 22.5 24.1 17.8 75 2.9 SW 6 13 3 7 - - 0.2
07/10:00pm 23.2 25.6 18.7 76 2.8 SSW 4 15 2 8 - - 0.2
07/09:30pm 23.4 25.0 18.3 73 3.2 S 7 13 4 7 - - 0.2
07/09:00pm 23.7 25.0 18.4 72 3.3 S 9 15 5 8 - - 0.2
07/08:30pm 23.9 25.3 17.9 69 3.8 S 7 15 4 8 - - 0.2
07/08:00pm 24.1 25.1 17.8 68 3.9 S 9 17 5 9 - - 0.2
07/07:30pm 24.0 25.0 17.7 68 3.9 S 9 20 5 11 - - 0.2
07/07:00pm 24.1 24.9 17.4 66 4.2 S 9 17 5 9 - - 0.2
07/06:30pm 24.3 25.5 17.3 65 4.4 S 7 17 4 9 - - 0.2
07/06:00pm 24.6 25.5 17.6 65 4.4 S 9 20 5 11 - - 0.2
07/05:30pm 24.8 26.1 17.5 64 4.6 S 7 19 4 10 - - 0.2
07/05:00pm 24.6 26.4 18.8 70 3.7 SSE 7 20 4 11 - - 0.2

Latest Capital City Observations: Canberra | Sydney | Melbourne | Brisbane | Adelaide | Perth | Hobart | Darwin

Other Formats:

Comma delimited format used in spreadsheet applications
http://www.bom.gov.au/fwo/IDQ60901/IDQ60901.95566.axf

JavaScript Object Notation format (JSON) in row-major order
http://www.bom.gov.au/fwo/IDQ60901/IDQ60901.95566.json